Time;durP1;ratioP1;P1;durP2;ratioP2;P2;SDS_P1;SDS_P2;PMS_P1;PMS_P2;Temp;Humidity;BMP_temperature;BMP_pressure;BME280_temperature;BME280_humidity;BME280_pressure;Samples;Min_cycle;Max_cycle;Signal;HPM_P1;HPM_P2
2022/12/12 00:02:07;;;;;;;29.27;8.63;;;;;;;-4.47;100.00;100886.97;6199054;28;20046;-71
2022/12/12 00:05:14;;;;;;;23.92;10.38;;;;;;;-4.46;100.00;100881.84;6198890;28;20442;-71
2022/12/12 00:08:16;;;;;;;21.98;9.68;;;;;;;-4.48;100.00;100898.06;6199259;28;20050;-71
2022/12/12 00:11:19;;;;;;;29.00;9.07;;;;;;;-4.49;100.00;100894.66;6198668;28;20065;-71
2022/12/12 00:14:21;;;;;;;20.13;8.68;;;;;;;-4.48;100.00;100896.34;6198592;28;20050;-71
2022/12/12 00:17:22;;;;;;;21.00;7.65;;;;;;;-4.46;100.00;100896.38;6198826;28;20053;-71
2022/12/12 00:20:23;;;;;;;30.58;7.53;;;;;;;-4.55;100.00;100901.41;6198508;28;20050;-71
2022/12/12 00:23:25;;;;;;;26.80;8.93;;;;;;;-4.57;100.00;100900.53;6198502;28;20054;-71
2022/12/12 00:26:30;;;;;;;25.20;10.13;;;;;;;-4.55;100.00;100893.69;6198309;28;20046;-71
2022/12/12 00:29:32;;;;;;;21.20;8.73;;;;;;;-4.57;100.00;100897.97;6198537;28;20077;-71
2022/12/12 00:32:33;;;;;;;23.65;10.10;;;;;;;-4.61;100.00;100897.94;6198193;28;20054;-71
2022/12/12 00:35:35;;;;;;;19.58;10.05;;;;;;;-4.66;100.00;100899.59;6198335;28;20050;-71
2022/12/12 00:38:36;;;;;;;24.95;9.02;;;;;;;-4.67;100.00;100902.16;6198231;28;20414;-71
2022/12/12 00:41:39;;;;;;;15.02;8.98;;;;;;;-4.70;100.00;100902.09;6198054;28;20046;-70
2022/12/12 00:44:41;;;;;;;16.23;7.57;;;;;;;-4.80;100.00;100902.84;6198203;28;20050;-71
2022/12/12 00:47:42;;;;;;;12.55;6.85;;;;;;;-4.80;100.00;100900.28;6198310;28;20050;-70
2022/12/12 00:50:44;;;;;;;17.08;8.38;;;;;;;-4.77;100.00;100895.16;6198009;28;20430;-71
2022/12/12 00:53:45;;;;;;;23.45;9.77;;;;;;;-4.76;100.00;100902.91;6197729;28;20073;-71
2022/12/12 00:56:48;;;;;;;21.13;11.10;;;;;;;-4.80;100.00;100897.72;6198020;28;20046;-71
2022/12/12 00:59:50;;;;;;;18.13;8.82;;;;;;;-4.82;100.00;100904.50;6197753;28;20046;-71
2022/12/12 01:02:51;;;;;;;14.68;7.88;;;;;;;-4.81;100.00;100909.69;6197876;28;20057;-71
2022/12/12 01:05:53;;;;;;;18.25;8.35;;;;;;;-4.81;100.00;100909.69;6197622;28;20050;-71
2022/12/12 01:08:54;;;;;;;12.88;7.43;;;;;;;-4.86;100.00;100916.41;6197554;28;20125;-71
2022/12/12 01:11:57;;;;;;;21.52;8.07;;;;;;;-4.83;100.00;100915.63;6197414;28;20061;-71
2022/12/12 01:14:58;;;;;;;22.02;5.55;;;;;;;-4.81;100.00;100913.91;6197437;28;20061;-71
2022/12/12 01:18:00;;;;;;;12.07;6.53;;;;;;;-4.83;100.00;100918.19;6197475;28;20046;-71
2022/12/12 01:21:02;;;;;;;14.45;6.97;;;;;;;-4.83;100.00;100923.31;6197258;28;20046;-71
2022/12/12 01:24:04;;;;;;;26.38;7.40;;;;;;;-4.82;100.00;100925.00;6196987;28;20441;-71
2022/12/12 01:27:06;;;;;;;20.30;7.10;;;;;;;-4.82;100.00;100923.31;6197352;28;20050;-71
2022/12/12 01:30:11;;;;;;;20.40;8.38;;;;;;;-4.75;100.00;100931.94;6197263;28;20054;-71
2022/12/12 01:33:12;;;;;;;21.50;7.28;;;;;;;-4.76;100.00;100933.66;6197173;28;20049;-71
2022/12/12 01:36:16;;;;;;;34.63;6.72;;;;;;;-4.75;100.00;100932.81;6197248;28;20046;-71
2022/12/12 01:39:17;;;;;;;27.17;9.65;;;;;;;-4.76;100.00;100936.22;6197173;28;20433;-71
2022/12/12 01:42:20;;;;;;;18.75;7.82;;;;;;;-4.75;100.00;100935.38;6197207;28;20055;-71
2022/12/12 01:46:07;;;;;;;12.07;7.07;;;;;;;-4.77;100.00;100937.03;6197001;28;20054;-71
2022/12/12 01:49:13;;;;;;;21.98;9.30;;;;;;;-4.77;100.00;100949.00;6162302;28;20061;-71
2022/12/12 01:52:19;;;;;;;14.40;6.65;;;;;;;-4.87;100.00;100942.91;6196995;28;20051;-71
2022/12/12 01:55:23;;;;;;;15.73;7.18;;;;;;;-4.91;100.00;100947.13;6199670;28;20055;-71
2022/12/12 01:58:26;;;;;;;12.43;6.10;;;;;;;-4.91;100.00;100942.00;6201682;28;20052;-71
2022/12/12 02:01:28;;;;;;;18.60;5.68;;;;;;;-4.98;100.00;100942.78;6201579;28;20498;-71
2022/12/12 02:04:29;;;;;;;15.65;7.70;;;;;;;-4.95;100.00;100944.50;6201405;28;20046;-71
2022/12/12 02:07:31;;;;;;;19.13;6.95;;;;;;;-4.95;100.00;100935.13;6201726;28;20418;-71
2022/12/12 02:10:33;;;;;;;16.42;7.82;;;;;;;-4.98;100.00;100934.22;6201324;28;20050;-71
2022/12/12 02:13:36;;;;;;;21.30;8.18;;;;;;;-4.96;100.00;100946.19;6201528;28;20050;-71
2022/12/12 02:17:04;;;;;;;12.63;7.25;;;;;;;-5.06;100.00;100949.50;6201192;28;20054;-71
2022/12/12 02:20:36;;;;;;;15.65;5.88;;;;;;;-4.99;100.00;100947.88;6201305;28;20061;-71
2022/12/12 02:24:19;;;;;;;17.88;7.55;;;;;;;-5.11;100.00;100946.00;6191713;28;20050;-71
2022/12/12 02:27:38;;;;;;;17.27;7.05;;;;;;;-5.13;100.00;100958.81;6201253;28;20054;-71
2022/12/12 02:30:48;;;;;;;18.10;5.68;;;;;;;-5.27;100.00;100947.47;6201055;28;20058;-71
2022/12/12 02:33:57;;;;;;;25.83;7.40;;;;;;;-5.41;100.00;100944.72;6200727;28;20050;-71
2022/12/12 02:37:07;;;;;;;18.95;8.20;;;;;;;-5.40;100.00;100943.06;6201003;28;20522;-71
2022/12/12 02:40:20;;;;;;;12.52;6.30;;;;;;;-5.32;100.00;100944.00;6200868;28;20054;-71
2022/12/12 02:43:30;;;;;;;19.60;7.15;;;;;;;-5.27;100.00;100944.06;6201047;28;20046;-71
2022/12/12 02:46:36;;;;;;;15.48;5.88;;;;;;;-5.24;100.00;100947.53;6200892;28;20046;-71
2022/12/12 02:49:45;;;;;;;16.42;5.82;;;;;;;-5.21;100.00;100946.72;6200756;28;20054;-71
2022/12/12 02:52:48;;;;;;;23.35;9.13;;;;;;;-5.23;100.00;100943.28;6200973;28;20054;-71
2022/12/12 02:55:49;;;;;;;13.02;8.40;;;;;;;-5.27;100.00;100944.06;6200344;28;20537;-71
2022/12/12 02:58:51;;;;;;;15.80;7.68;;;;;;;-5.20;100.00;100945.88;6200635;28;20426;-71
2022/12/12 03:02:07;;;;;;;17.10;6.53;;;;;;;-5.15;100.00;100951.94;6200423;28;20050;-71
2022/12/12 03:08:59;;;;;;;19.17;8.63;;;;;;;-5.25;100.00;100948.38;6200545;28;20062;-71
2022/12/12 03:12:06;;;;;;;18.08;7.28;;;;;;;-5.19;100.00;100956.16;6200268;28;20046;-71
2022/12/12 03:15:15;;;;;;;11.13;6.25;;;;;;;-5.20;100.00;100951.88;6200299;28;20070;-71
2022/12/12 03:18:26;;;;;;;16.52;6.65;;;;;;;-5.20;100.00;100941.63;6200199;28;20398;-71
2022/12/12 03:21:37;;;;;;;19.35;8.23;;;;;;;-5.19;100.00;100945.91;6199840;28;20066;-71
2022/12/12 03:24:46;;;;;;;12.88;6.60;;;;;;;-5.20;100.00;100940.75;6254665;22;20057;-76
2022/12/12 03:27:52;;;;;;;17.00;7.43;;;;;;;-5.18;100.00;100946.75;6200372;28;20082;-76
2022/12/12 03:30:57;;;;;;;10.52;5.30;;;;;;;-5.15;100.00;100950.22;6200108;28;20050;-76
2022/12/12 03:34:02;;;;;;;16.58;7.15;;;;;;;-5.12;100.00;100954.53;6200327;28;20058;-76
2022/12/12 03:37:10;;;;;;;16.15;7.28;;;;;;;-5.11;100.00;100943.44;6199925;28;20049;-75
2022/12/12 03:40:17;;;;;;;18.25;6.50;;;;;;;-5.08;100.00;100946.06;6200313;28;20064;-73
2022/12/12 03:43:22;;;;;;;18.60;6.25;;;;;;;-5.13;100.00;100940.03;6199803;28;20057;-76
2022/12/12 03:46:31;;;;;;;16.90;8.73;;;;;;;-5.20;100.00;100936.50;6199498;28;20057;-76
2022/12/12 03:49:40;;;;;;;15.85;6.80;;;;;;;-5.19;100.00;100933.09;6199729;28;20054;-76
2022/12/12 03:52:47;;;;;;;10.95;5.68;;;;;;;-5.17;100.00;100944.22;6199375;28;20054;-74
2022/12/12 03:55:55;;;;;;;14.27;7.10;;;;;;;-5.21;100.00;100937.34;6199454;28;20054;-76
2022/12/12 03:59:02;;;;;;;19.47;8.17;;;;;;;-5.22;100.00;100942.47;6199620;28;20054;-76
2022/12/12 04:02:12;;;;;;;15.68;6.75;;;;;;;-5.21;100.00;100945.03;6199286;28;20289;-75
2022/12/12 04:05:20;;;;;;;29.85;9.63;;;;;;;-5.27;100.00;100950.03;6198905;28;20499;-76
2022/12/12 04:08:23;;;;;;;17.13;7.20;;;;;;;-5.36;100.00;100952.47;6199314;28;20046;-76
2022/12/12 04:14:47;;;;;;;;;;;;;;;-5.32;100.00;100955.94;6199295;28;20133;-76
2022/12/12 04:18:00;;;;;;;8.65;4.85;;;;;;;-5.35;100.00;100949.09;6198916;28;19937;-76
2022/12/12 04:24:46;;;;;;;10.88;5.55;;;;;;;-5.33;100.00;100961.91;6198556;28;20054;-76
2022/12/12 04:27:53;;;;;;;16.58;7.47;;;;;;;-5.33;100.00;100959.34;6198699;28;20057;-76
2022/12/12 04:31:01;;;;;;;10.85;5.97;;;;;;;-5.33;100.00;100969.59;6198678;28;20050;-76
2022/12/12 04:34:09;;;;;;;12.77;5.75;;;;;;;-5.33;100.00;100972.16;6198423;28;20050;-76
2022/12/12 04:37:15;;;;;;;13.23;7.43;;;;;;;-5.36;100.00;100978.97;6198586;28;20046;-76
2022/12/12 04:40:22;;;;;;;13.13;6.90;;;;;;;-5.42;100.00;100983.97;6198340;28;20502;-76
2022/12/12 04:43:30;;;;;;;12.93;6.20;;;;;;;-5.41;100.00;100975.44;6198382;28;20458;-76
2022/12/12 04:46:33;;;;;;;7.45;5.05;;;;;;;-5.41;100.00;100972.88;6198229;28;20061;-76
2022/12/12 04:49:36;;;;;;;19.90;7.78;;;;;;;-5.45;100.00;100978.84;6198364;28;20454;-76
2022/12/12 04:52:40;;;;;;;14.25;8.68;;;;;;;-5.43;100.00;100983.97;6198006;28;20129;-76
2022/12/12 04:55:47;;;;;;;13.05;5.80;;;;;;;-5.46;100.00;100978.78;6198013;28;20444;-76
2022/12/12 04:58:48;;;;;;;13.48;6.47;;;;;;;-5.45;100.00;100976.28;6198049;28;20552;-76
2022/12/12 05:01:55;;;;;;;10.25;4.57;;;;;;;-5.45;100.00;100978.84;6198153;28;20065;-76
2022/12/12 05:05:02;;;;;;;19.17;6.75;;;;;;;-5.51;100.00;100981.28;6197794;28;20050;-76
2022/12/12 05:08:07;;;;;;;13.23;6.40;;;;;;;-5.54;100.00;100985.47;6198161;28;20061;-76
2022/12/12 05:11:11;;;;;;;10.02;4.18;;;;;;;-5.66;100.00;100984.47;6197811;28;20061;-76
2022/12/12 05:14:15;;;;;;;15.05;7.35;;;;;;;-5.73;100.00;100987.75;6197650;28;20085;-76
2022/12/12 05:17:24;;;;;;;15.88;5.85;;;;;;;-5.70;100.00;100981.81;6197860;28;20057;-76
2022/12/12 05:20:26;;;;;;;25.30;9.18;;;;;;;-5.74;100.00;100978.34;6197647;28;20446;-76
2022/12/12 05:23:27;;;;;;;23.00;7.70;;;;;;;-5.67;100.00;100992.13;6197595;28;20509;-76
2022/12/12 05:26:32;;;;;;;14.05;6.82;;;;;;;-5.68;100.00;100991.28;6197900;28;20054;-76
2022/12/12 05:29:34;;;;;;;11.13;6.22;;;;;;;-5.68;100.00;100998.94;6199244;28;20513;-76
2022/12/12 05:32:35;;;;;;;23.33;6.38;;;;;;;-5.72;100.00;100996.28;6202542;28;20050;-76
2022/12/12 05:35:37;;;;;;;23.33;8.82;;;;;;;-5.71;100.00;100993.75;6202745;28;20056;-76
2022/12/12 05:38:38;;;;;;;15.20;6.78;;;;;;;-5.74;100.00;100997.97;6202702;28;20057;-76
2022/12/12 05:41:41;;;;;;;22.98;8.57;;;;;;;-5.71;100.00;100996.31;6202491;28;20080;-76
2022/12/12 05:44:43;;;;;;;22.45;8.98;;;;;;;-5.74;100.00;100996.25;6202482;28;20053;-76
2022/12/12 05:47:44;;;;;;;17.52;7.97;;;;;;;-5.72;100.00;100992.06;6202343;28;20410;-76
2022/12/12 05:50:46;;;;;;;16.00;9.15;;;;;;;-5.74;100.00;101003.94;6202128;28;20403;-76
2022/12/12 05:53:47;;;;;;;12.73;5.10;;;;;;;-5.76;100.00;101005.63;6202139;28;20469;-75
2022/12/12 05:56:50;;;;;;;23.98;6.93;;;;;;;-5.80;100.00;101000.44;6201962;28;20055;-76
2022/12/12 05:59:51;;;;;;;18.95;7.38;;;;;;;-5.82;100.00;100999.53;6202248;28;20053;-76
2022/12/12 06:02:53;;;;;;;18.25;7.80;;;;;;;-5.84;100.00;100999.50;6202077;28;20054;-76
2022/12/12 06:05:54;;;;;;;26.40;8.35;;;;;;;-5.88;100.00;101002.84;6201603;28;20050;-76
2022/12/12 06:08:56;;;;;;;13.18;5.40;;;;;;;-5.97;100.00;101002.72;6202002;28;20505;-76
2022/12/12 06:11:59;;;;;;;25.88;7.35;;;;;;;-5.92;100.00;101003.66;6201660;28;20061;-76
2022/12/12 06:15:00;;;;;;;15.63;7.70;;;;;;;-5.93;100.00;101004.50;6201505;28;20502;-75
2022/12/12 06:18:02;;;;;;;26.08;8.15;;;;;;;-5.90;100.00;101009.66;6201614;28;20047;-76
2022/12/12 06:21:04;;;;;;;18.05;6.43;;;;;;;-5.95;100.00;101007.03;6209444;28;20056;-76
2022/12/12 06:24:06;;;;;;;17.58;5.72;;;;;;;-5.94;100.00;101008.75;6225515;28;20077;-76
2022/12/12 06:27:09;;;;;;;21.90;8.40;;;;;;;-5.95;100.00;101009.59;6214501;28;20068;-76
2022/12/12 06:30:11;;;;;;;20.85;8.55;;;;;;;-5.95;100.00;101006.16;6203251;28;20057;-76
2022/12/12 06:33:13;;;;;;;10.10;5.53;;;;;;;-5.96;100.00;101015.53;6214557;28;20050;-76
2022/12/12 06:36:22;;;;;;;19.23;6.38;;;;;;;-5.96;100.00;101014.66;6225477;28;20056;-76
2022/12/12 06:39:24;;;;;;;9.65;6.35;;;;;;;-5.98;100.00;101018.91;6225964;28;20057;-76
2022/12/12 06:42:26;;;;;;;15.85;6.57;;;;;;;-5.99;100.00;101019.75;6225184;28;20053;-75
2022/12/12 06:45:28;;;;;;;9.80;5.00;;;;;;;-5.99;100.00;101029.97;6225226;28;20050;-76
2022/12/12 06:48:30;;;;;;;11.98;5.25;;;;;;;-5.97;100.00;101029.16;6225838;28;20042;-76
2022/12/12 06:51:32;;;;;;;10.40;4.50;;;;;;;-5.95;100.00;101026.63;6226485;28;20057;-76
2022/12/12 06:54:33;;;;;;;14.88;5.40;;;;;;;-5.94;100.00;101031.78;6225260;28;20054;-75
2022/12/12 06:57:36;;;;;;;18.30;7.97;;;;;;;-5.96;100.00;101033.44;6225080;28;20056;-76
2022/12/12 07:00:37;;;;;;;24.20;7.80;;;;;;;-5.94;100.00;101031.78;6225188;28;20423;-75
2022/12/12 07:03:39;;;;;;;28.67;8.52;;;;;;;-5.97;100.00;101038.53;6225097;28;20084;-76
2022/12/12 07:06:41;;;;;;;14.98;5.28;;;;;;;-5.98;100.00;101031.69;6225129;28;20505;-76
2022/12/12 07:09:42;;;;;;;12.02;7.03;;;;;;;-6.09;100.00;101036.59;6225776;28;20054;-76
2022/12/12 07:12:45;;;;;;;20.38;7.40;;;;;;;-5.98;100.00;101035.13;6224881;28;20056;-75
2022/12/12 07:15:48;;;;;;;18.38;8.05;;;;;;;-5.97;100.00;101036.84;6224701;28;20046;-76
2022/12/12 07:18:50;;;;;;;19.70;7.32;;;;;;;-5.95;100.00;101040.31;6224608;28;20046;-76
2022/12/12 07:21:51;;;;;;;14.73;5.72;;;;;;;-5.93;100.00;101037.75;6224499;28;20061;-76
2022/12/12 07:24:52;;;;;;;19.20;6.65;;;;;;;-5.95;100.00;101037.75;6224181;28;20046;-76
2022/12/12 07:27:55;;;;;;;16.83;6.68;;;;;;;-5.94;100.00;101047.13;6225191;28;20089;-75
2022/12/12 07:30:57;;;;;;;13.25;5.13;;;;;;;-5.93;100.00;101037.75;6224258;28;20061;-76
2022/12/12 07:33:59;;;;;;;9.70;6.22;;;;;;;-5.94;100.00;101053.94;6224117;28;20112;-75
2022/12/12 07:37:00;;;;;;;30.52;9.77;;;;;;;-5.95;100.00;101052.19;6224024;28;20506;-75
2022/12/12 07:40:02;;;;;;;17.55;6.00;;;;;;;-5.93;100.00;101058.22;6224192;28;20049;-76
2022/12/12 07:43:04;;;;;;;24.98;7.75;;;;;;;-5.97;100.00;101056.44;6223974;28;20054;-75
2022/12/12 07:46:06;;;;;;;13.23;6.53;;;;;;;-5.97;100.00;101057.31;6223946;28;20168;-75
2022/12/12 07:49:08;;;;;;;20.23;6.80;;;;;;;-5.95;100.00;101052.19;6223818;28;20465;-75
2022/12/12 07:52:09;;;;;;;26.40;8.40;;;;;;;-5.89;100.00;101052.31;6222808;28;20053;-76
2022/12/12 07:55:11;;;;;;;15.80;8.10;;;;;;;-5.91;100.00;101049.69;6223602;28;20469;-76
2022/12/12 07:58:14;;;;;;;24.52;8.10;;;;;;;-5.96;100.00;101047.94;6223516;28;20053;-75
2022/12/12 08:01:18;;;;;;;40.22;10.90;;;;;;;-5.96;100.00;101047.94;6223504;28;20425;-76
2022/12/12 08:04:19;;;;;;;16.98;6.70;;;;;;;-5.95;100.00;101057.31;6223489;28;20050;-74
2022/12/12 08:07:21;;;;;;;13.90;7.18;;;;;;;-5.90;100.00;101059.13;6223790;28;20045;-73
2022/12/12 08:10:22;;;;;;;19.83;7.95;;;;;;;-5.83;100.00;101049.84;6223350;28;20433;-76
2022/12/12 08:13:25;;;;;;;26.50;10.13;;;;;;;-5.80;100.00;101054.16;6223559;28;20063;-76
2022/12/12 08:16:28;;;;;;;35.85;9.18;;;;;;;-5.84;100.00;101057.50;6223227;28;20058;-76
2022/12/12 08:19:30;;;;;;;15.20;8.70;;;;;;;-5.82;100.00;101058.38;6223094;28;20132;-76
2022/12/12 08:22:31;;;;;;;22.02;9.57;;;;;;;-5.78;100.00;101058.47;6223123;28;20065;-76
2022/12/12 08:25:34;;;;;;;15.27;9.13;;;;;;;-5.70;100.00;101063.72;6223001;28;20056;-77
2022/12/12 08:28:40;;;;;;;30.92;9.80;;;;;;;-5.68;100.00;101059.47;6223168;28;20049;-76
2022/12/12 08:31:41;;;;;;;15.02;8.65;;;;;;;-5.61;100.00;101062.19;6223139;28;20139;-76
2022/12/12 08:34:43;;;;;;;42.45;13.32;;;;;;;-5.59;100.00;101064.75;6222978;28;20049;-77
2022/12/12 08:37:44;;;;;;;25.80;10.68;;;;;;;-5.52;100.00;101066.59;6222868;28;20072;-76
2022/12/12 08:40:45;;;;;;;29.08;10.90;;;;;;;-5.44;100.00;101059.06;6222868;28;20050;-77
2022/12/12 08:43:49;;;;;;;22.98;8.70;;;;;;;-5.38;100.00;101065.13;6222456;28;20057;-77
2022/12/12 08:46:50;;;;;;;24.60;7.75;;;;;;;-5.35;100.00;101066.91;6222820;28;20061;-76
2022/12/12 08:49:52;;;;;;;15.50;8.77;;;;;;;-5.43;100.00;101065.91;6222269;28;20407;-77
2022/12/12 08:52:54;;;;;;;22.05;9.00;;;;;;;-5.43;100.00;101064.19;6222734;28;20054;-77
2022/12/12 08:55:55;;;;;;;20.15;8.23;;;;;;;-5.44;100.00;101072.72;6220213;28;20045;-75
2022/12/12 08:58:58;;;;;;;15.95;8.15;;;;;;;-5.35;100.00;101074.59;6210321;28;20497;-76
2022/12/12 09:02:00;;;;;;;23.58;8.50;;;;;;;-5.30;100.00;101072.97;6216699;28;20049;-76
2022/12/12 09:05:01;;;;;;;13.43;7.55;;;;;;;-5.20;100.00;101079.09;6221962;28;20425;-76
2022/12/12 09:08:03;;;;;;;23.70;8.23;;;;;;;-5.22;100.00;101078.22;6222434;28;20053;-77
2022/12/12 09:11:04;;;;;;;25.75;7.88;;;;;;;-5.14;100.00;101082.59;6221953;28;20517;-77
2022/12/12 09:14:07;;;;;;;22.42;8.43;;;;;;;-5.07;100.00;101086.13;6216021;28;20054;-77
2022/12/12 09:17:09;;;;;;;23.20;7.97;;;;;;;-5.01;100.00;101093.03;6213802;28;20046;-76
2022/12/12 09:20:10;;;;;;;27.75;7.57;;;;;;;-4.95;100.00;101086.34;6208212;28;20064;-75
2022/12/12 09:23:12;;;;;;;19.17;7.25;;;;;;;-4.92;100.00;101078.66;6205637;28;20057;-76
2022/12/12 09:26:13;;;;;;;32.63;13.10;;;;;;;-4.84;100.00;101083.91;6219389;23;21633;-73
2022/12/12 09:29:16;;;;;;;28.88;10.18;;;;;;;-4.76;100.00;101082.34;6187005;28;20042;-73
2022/12/12 09:32:18;;;;;;;16.95;8.27;;;;;;;-4.70;100.00;101084.97;6173179;28;20062;-73
2022/12/12 09:35:19;;;;;;;15.77;8.90;;;;;;;-4.63;100.00;101083.38;6197745;28;20050;-73
2022/12/12 09:38:22;;;;;;;17.98;7.75;;;;;;;-4.55;100.00;101091.16;6183000;28;20051;-73
2022/12/12 09:41:26;;;;;;;27.20;8.55;;;;;;;-4.54;100.00;101083.50;6173541;28;20050;-73
2022/12/12 09:44:28;;;;;;;20.42;8.73;;;;;;;-4.45;100.00;101087.88;6173227;28;20466;-73
2022/12/12 09:47:36;;;;;;;38.55;13.95;;;;;;;-4.41;100.00;101089.63;6173630;28;20050;-73
2022/12/12 09:50:41;;;;;;;24.55;9.75;;;;;;;-4.37;100.00;101088.84;6173328;28;20051;-73
2022/12/12 09:53:46;;;;;;;19.27;9.40;;;;;;;-4.30;100.00;101088.09;6173202;28;20517;-73
2022/12/12 09:56:59;;;;;;;21.70;10.35;;;;;;;-4.20;100.00;101089.91;6173417;28;20090;-73
2022/12/12 10:00:08;;;;;;;28.45;8.55;;;;;;;-4.13;100.00;101088.31;6173055;28;20050;-73
2022/12/12 10:03:20;;;;;;;19.98;7.88;;;;;;;-4.04;100.00;101090.09;6173438;28;20082;-73
2022/12/12 10:06:23;;;;;;;24.20;10.02;;;;;;;-3.98;100.00;101097.88;6172988;28;20418;-73
2022/12/12 10:09:36;;;;;;;24.50;10.05;;;;;;;-3.92;100.00;101093.66;6173195;28;20053;-73
2022/12/12 10:12:38;;;;;;;28.02;8.80;;;;;;;-3.85;100.00;101094.59;6173167;28;20506;-73
2022/12/12 10:15:45;;;;;;;30.27;9.80;;;;;;;-3.79;100.00;101102.38;6174717;28;20046;-73
2022/12/12 10:18:49;;;;;;;22.08;9.02;;;;;;;-3.71;100.00;101092.19;6177986;28;20047;-74
2022/12/12 10:21:52;;;;;;;18.88;7.93;;;;;;;-3.65;100.00;101097.38;6177204;28;20054;-74
2022/12/12 10:24:58;;;;;;;19.60;8.63;;;;;;;-3.61;100.00;101092.28;6177372;28;20137;-73
2022/12/12 10:28:09;;;;;;;19.35;9.50;;;;;;;-3.53;100.00;101099.22;6177433;28;20051;-74
2022/12/12 10:31:27;;;;;;;19.33;8.68;;;;;;;-3.43;100.00;101101.03;6177175;28;20530;-74
2022/12/12 10:34:45;;;;;;;19.88;9.70;;;;;;;-3.37;100.00;101094.22;6177304;28;20392;-74
2022/12/12 10:37:57;;;;;;;24.08;8.20;;;;;;;-3.29;100.00;101094.28;6177041;28;20050;-74
2022/12/12 10:41:06;;;;;;;20.55;8.20;;;;;;;-3.26;100.00;101096.03;6177123;28;20064;-74
2022/12/12 10:44:19;;;;;;;20.02;9.02;;;;;;;-3.21;100.00;101087.53;6176971;28;20051;-74
2022/12/12 10:47:22;;;;;;;20.00;8.90;;;;;;;-3.12;100.00;101087.59;6177001;28;20051;-74
2022/12/12 10:50:31;;;;;;;20.92;9.68;;;;;;;-3.06;100.00;101087.63;6176759;28;20051;-74
2022/12/12 10:53:34;;;;;;;26.10;11.10;;;;;;;-3.01;100.00;101092.81;6177211;28;20046;-74
2022/12/12 10:56:35;;;;;;;20.80;10.63;;;;;;;-2.94;100.00;101086.00;6176573;28;20392;-74
2022/12/12 10:59:42;;;;;;;22.80;8.48;;;;;;;-2.90;100.00;101077.47;6176680;28;20135;-74
2022/12/12 11:02:45;;;;;;;12.30;7.30;;;;;;;-2.82;100.00;101073.22;6176562;28;20061;-74
2022/12/12 11:05:48;;;;;;;25.33;7.70;;;;;;;-2.78;100.00;101067.25;6182399;28;20421;-74
2022/12/12 11:08:54;;;;;;;18.67;9.50;;;;;;;-2.76;100.00;101068.13;6203091;28;20426;-74
2022/12/12 11:12:01;;;;;;;15.32;6.78;;;;;;;-2.70;100.00;101067.31;6200612;28;20047;-74
2022/12/12 11:15:06;;;;;;;13.02;6.95;;;;;;;-2.66;100.00;101066.47;6200400;28;20081;-74
2022/12/12 11:18:14;;;;;;;18.52;7.95;;;;;;;-2.52;100.00;101076.84;6200403;28;20046;-74
2022/12/12 11:21:16;;;;;;;23.52;9.05;;;;;;;-2.44;100.00;101064.88;6200002;28;20046;-74
2022/12/12 11:24:20;;;;;;;17.88;7.22;;;;;;;-2.30;100.00;101070.94;6200278;28;20054;-74
2022/12/12 11:27:26;;;;;;;19.38;7.82;;;;;;;-2.22;100.00;101069.28;6198805;28;20057;-75
2022/12/12 11:30:34;;;;;;;21.58;8.95;;;;;;;-2.10;100.00;101069.31;6200540;28;20046;-74
2022/12/12 11:33:42;;;;;;;32.75;10.13;;;;;;;-2.07;100.00;101063.31;6199905;28;20521;-74
2022/12/12 11:36:43;;;;;;;23.05;7.65;;;;;;;-2.10;100.00;101061.56;6200092;28;20604;-74
2022/12/12 11:39:46;;;;;;;20.95;7.88;;;;;;;-2.13;100.00;101063.31;6199686;28;20047;-75
2022/12/12 11:42:48;;;;;;;19.40;8.55;;;;;;;-2.13;100.00;101058.16;6199777;28;20437;-74
2022/12/12 11:46:00;;;;;;;17.90;8.05;;;;;;;-2.16;100.00;101060.72;6199605;28;20046;-74
2022/12/12 11:49:04;;;;;;;14.70;7.45;;;;;;;-2.13;100.00;101061.59;6199886;28;20042;-74
2022/12/12 11:52:18;;;;;;;23.63;8.52;;;;;;;-2.03;100.00;101064.19;6199579;28;20050;-75
2022/12/12 11:55:29;;;;;;;20.17;7.65;;;;;;;-1.97;100.00;101051.31;6199692;28;20062;-75
2022/12/12 11:58:41;;;;;;;22.65;8.95;;;;;;;-1.79;100.00;101053.94;6199187;28;20182;-75
2022/12/12 12:01:52;;;;;;;15.02;7.68;;;;;;;-1.56;100.00;101036.78;6196206;28;20050;-75
2022/12/12 12:05:05;;;;;;;18.13;7.18;;;;;;;-1.36;100.00;101049.72;6198785;28;20058;-75
2022/12/12 12:08:18;;;;;;;16.13;6.53;;;;;;;-1.23;100.00;101049.69;6199089;28;20132;-75
2022/12/12 12:11:26;;;;;;;17.63;7.82;;;;;;;-1.14;100.00;101047.97;6198797;28;20047;-75
2022/12/12 12:14:42;;;;;;;17.63;7.33;;;;;;;-1.12;100.00;101051.41;6185009;28;20058;-76
2022/12/12 12:17:58;;;;;;;15.93;8.25;;;;;;;-1.04;100.00;101043.69;6198114;28;20084;-75
2022/12/12 12:21:14;;;;;;;19.10;7.03;;;;;;;-1.00;100.00;101041.94;6198698;28;20486;-75
2022/12/12 12:24:45;;;;;;;19.65;7.90;;;;;;;-1.05;100.00;101042.81;6198738;28;20053;-75
2022/12/12 12:27:58;;;;;;;25.27;8.15;;;;;;;-1.14;100.00;101037.66;6195161;28;20061;-75
2022/12/12 12:31:11;;;;;;;10.63;5.60;;;;;;;-1.18;100.00;101041.13;6198602;28;20054;-75
2022/12/12 12:34:21;;;;;;;19.42;6.18;;;;;;;-1.36;100.00;101031.66;6198600;28;20053;-75
2022/12/12 12:37:36;;;;;;;9.43;5.55;;;;;;;-1.45;100.00;101034.25;6198492;28;20054;-75
2022/12/12 12:41:01;;;;;;;16.77;6.88;;;;;;;-1.56;100.00;101031.66;6198466;28;20047;-75
2022/12/12 12:44:22;;;;;;;18.40;7.10;;;;;;;-1.56;100.00;101031.66;6198187;28;20053;-75
2022/12/12 12:47:30;;;;;;;20.05;7.22;;;;;;;-1.53;100.00;101028.22;6198377;28;20055;-75
2022/12/12 12:50:37;;;;;;;14.57;5.47;;;;;;;-1.55;100.00;101030.78;6198352;28;20050;-75
2022/12/12 12:53:46;;;;;;;14.70;6.78;;;;;;;-1.56;100.00;101034.22;6198309;28;20053;-75
2022/12/12 12:56:51;;;;;;;24.17;7.22;;;;;;;-1.56;100.00;101030.78;6198453;28;20050;-75
2022/12/12 12:59:57;;;;;;;11.40;5.43;;;;;;;-1.58;100.00;101032.53;6198100;28;20046;-75
2022/12/12 13:03:02;;;;;;;12.68;5.72;;;;;;;-1.57;100.00;101036.81;6198107;28;20054;-75
2022/12/12 13:06:12;;;;;;;17.58;6.88;;;;;;;-1.59;100.00;101029.09;6197920;28;20054;-75
2022/12/12 13:09:27;;;;;;;9.85;5.18;;;;;;;-1.61;100.00;101030.78;6197839;28;20050;-75
2022/12/12 13:12:32;;;;;;;15.65;6.63;;;;;;;-1.55;100.00;101030.78;6197865;28;20732;-75
2022/12/12 13:15:39;;;;;;;11.25;5.82;;;;;;;-1.49;100.00;101034.25;6198122;28;20054;-74
2022/12/12 13:18:43;;;;;;;15.25;6.70;;;;;;;-1.49;100.00;101032.53;6197667;28;20051;-74
2022/12/12 13:21:52;;;;;;;17.27;6.75;;;;;;;-1.53;100.00;101030.81;6197121;28;20054;-74
2022/12/12 13:24:58;;;;;;;;;;;;;;;-1.56;100.00;101028.22;6198036;28;20054;-74
2022/12/12 13:28:04;;;;;;;17.85;6.55;;;;;;;-1.58;100.00;101028.22;6197766;28;20373;-74
2022/12/12 13:31:26;;;;;;;11.43;6.43;;;;;;;-1.62;100.00;101029.06;6197429;28;20425;-74
2022/12/12 13:34:30;;;;;;;15.07;5.43;;;;;;;-1.66;100.00;101034.22;6197523;28;20752;-74
2022/12/12 13:37:36;;;;;;;7.40;5.07;;;;;;;-1.68;100.00;101031.66;6197618;28;20054;-74
2022/12/12 13:40:41;;;;;;;16.98;5.65;;;;;;;-1.71;100.00;101031.63;6197504;28;20501;-74
2022/12/12 13:43:46;;;;;;;12.95;5.85;;;;;;;-1.69;100.00;101027.34;6197519;28;20061;-74
2022/12/12 13:46:47;;;;;;;15.55;6.35;;;;;;;-1.68;100.00;101030.75;6197650;28;20050;-74
2022/12/12 13:49:52;;;;;;;15.55;5.47;;;;;;;-1.64;100.00;101029.91;6197641;28;20458;-74
2022/12/12 13:53:17;;;;;;;12.95;5.53;;;;;;;-1.62;100.00;101041.97;6202770;28;20046;-74
2022/12/12 13:56:33;;;;;;;17.98;5.43;;;;;;;-1.63;100.00;101035.09;6201938;28;20065;-74
2022/12/12 14:00:14;;;;;;;8.57;4.88;;;;;;;-1.64;100.00;101037.66;6202410;28;20042;-75
2022/12/12 14:03:25;;;;;;;16.67;6.07;;;;;;;-1.67;100.00;101037.66;6202400;28;20050;-75
2022/12/12 14:06:28;;;;;;;9.95;4.90;;;;;;;-1.68;100.00;101044.53;6201881;28;20046;-75
2022/12/12 14:09:33;;;;;;;14.30;5.07;;;;;;;-1.70;100.00;101043.66;6202208;28;20050;-74
2022/12/12 14:12:37;;;;;;;13.25;6.47;;;;;;;-1.75;100.00;101045.38;6201805;28;20054;-74
2022/12/12 14:15:38;;;;;;;12.85;5.88;;;;;;;-1.74;100.00;101048.81;6202009;28;20133;-74